createdAt,value
2018-11-27T00:04:22.525Z,82.35
2018-11-27T00:09:17.079Z,83.78
2018-11-27T00:14:10.540Z,84.92
2018-11-27T00:19:04.118Z,82.35
2018-11-27T00:23:58.044Z,103.65
2018-11-27T00:28:51.538Z,57.48
2018-11-27T00:33:45.115Z,101.05
2018-11-27T00:38:40.785Z,72.60
2018-11-27T00:43:34.676Z,100.38
2018-11-27T00:48:28.569Z,98.07
2018-11-27T00:53:22.075Z,124.10
2018-11-27T00:58:15.668Z,83.65
2018-11-27T01:03:09.342Z,51.37
2018-11-27T01:08:02.856Z,45.23
2018-11-27T01:12:56.349Z,52.93
2018-11-27T01:17:53.125Z,73.52
2018-11-27T01:22:46.670Z,56.15
2018-11-27T01:27:40.370Z,46.65
2018-11-27T01:32:34.068Z,51.40
2018-11-27T01:37:27.517Z,54.55
2018-11-27T01:42:21.432Z,64.75
2018-11-27T01:47:15.075Z,54.77
2018-11-27T01:52:08.721Z,65.35
2018-11-27T01:57:03.286Z,65.40
2018-11-27T02:01:56.841Z,64.03
2018-11-27T02:06:50.624Z,87.55
2018-11-27T02:11:44.114Z,53.83
2018-11-27T02:16:37.615Z,56.37
2018-11-27T02:21:31.116Z,48.92
2018-11-27T02:26:24.634Z,32.65
2018-11-27T02:31:18.184Z,36.77
2018-11-27T02:36:11.860Z,44.63
2018-11-27T02:41:05.718Z,36.68
2018-11-27T02:45:59.345Z,38.67
2018-11-27T02:50:52.901Z,44.35
2018-11-27T02:55:46.435Z,47.15
2018-11-27T03:00:40.184Z,49.63
2018-11-27T03:05:37.195Z,46.83
2018-11-27T03:10:31.447Z,46.55
2018-11-27T03:15:25.041Z,43.83
2018-11-27T03:20:18.824Z,57.70
2018-11-27T03:25:21.426Z,63.70
2018-11-27T03:30:18.673Z,51.85
2018-11-27T03:35:15.058Z,44.27
2018-11-27T03:40:12.200Z,51.33
2018-11-27T03:45:06.654Z,46.88
2018-11-27T03:50:00.345Z,49.23
2018-11-27T03:54:53.744Z,71.10
2018-11-27T03:59:47.085Z,65.37
2018-11-27T04:04:40.721Z,56.95
2018-11-27T04:09:34.108Z,55.52
2018-11-27T04:14:28.776Z,69.45
2018-11-27T04:19:22.362Z,59.30
2018-11-27T04:24:16.211Z,88.65
2018-11-27T04:29:09.862Z,91.12
2018-11-27T04:34:03.640Z,109.85
2018-11-27T04:38:58.029Z,111.90
2018-11-27T04:43:51.862Z,117.17
2018-11-27T04:48:45.952Z,108.00
2018-11-27T04:53:39.730Z,128.45
2018-11-27T04:58:33.983Z,186.25
2018-11-27T05:03:27.691Z,127.75
2018-11-27T05:08:21.267Z,125.97
2018-11-27T05:13:15.225Z,292.80
2018-11-27T05:18:08.742Z,434.13
2018-11-27T05:23:02.740Z,1225.60
2018-11-27T05:27:57.375Z,740.47
2018-11-27T05:32:51.066Z,709.73
2018-11-27T05:37:46.205Z,475.00
2018-11-27T05:42:39.812Z,1588.75
2018-11-27T05:47:34.828Z,871.63
2018-11-27T05:52:28.351Z,811.35
2018-11-27T05:57:21.820Z,1220.28
2018-11-27T06:02:15.336Z,897.72
2018-11-27T06:07:08.918Z,543.35
2018-11-27T06:12:02.494Z,217.97
2018-11-27T06:16:56.108Z,559.48
2018-11-27T06:21:49.690Z,388.98
2018-11-27T06:26:43.253Z,239.70
2018-11-27T06:31:36.887Z,1247.68
2018-11-27T06:36:30.571Z,942.58
2018-11-27T06:41:24.514Z,1235.75
2018-11-27T06:46:18.298Z,922.52
2018-11-27T06:51:12.314Z,1269.13
2018-11-27T06:56:06.458Z,793.87
2018-11-27T07:01:03.051Z,404.75
2018-11-27T07:05:56.802Z,466.05
2018-11-27T07:10:50.512Z,409.35
2018-11-27T07:15:44.138Z,758.83
2018-11-27T07:20:39.282Z,1427.08
2018-11-27T07:25:33.371Z,1352.72
2018-11-27T07:30:27.673Z,1026.33
2018-11-27T07:35:21.439Z,788.33
2018-11-27T07:40:18.004Z,1123.18
2018-11-27T07:45:18.076Z,930.10
2018-11-27T07:50:12.288Z,1004.90
2018-11-27T07:55:08.475Z,1299.10
2018-11-27T08:00:02.427Z,868.20
2018-11-27T08:04:56.204Z,437.08
2018-11-27T08:09:49.795Z,883.65
2018-11-27T08:14:43.426Z,399.67
2018-11-27T08:19:37.287Z,295.30
2018-11-27T08:24:31.135Z,315.68
2018-11-27T08:29:24.877Z,218.15
2018-11-27T08:34:18.955Z,228.07
2018-11-27T08:39:12.514Z,327.60
2018-11-27T08:44:06.684Z,201.75
2018-11-27T08:49:00.398Z,599.98
2018-11-27T08:53:54.316Z,714.92
2018-11-27T08:58:48.068Z,742.27
2018-11-27T09:03:46.345Z,628.42
2018-11-27T09:08:35.742Z,807.85
2018-11-27T09:13:29.640Z,246.53
2018-11-27T09:18:25.659Z,183.68
2018-11-27T09:23:21.147Z,170.32
2018-11-27T09:28:15.266Z,206.13
2018-11-27T09:33:09.743Z,179.18
2018-11-27T09:38:04.451Z,132.32
2018-11-27T09:42:58.909Z,147.57
2018-11-27T09:47:54.686Z,167.18
2018-11-27T09:52:49.063Z,165.35
2018-11-27T09:57:42.693Z,155.70
2018-11-27T10:02:36.285Z,148.87
2018-11-27T10:07:31.129Z,123.50
2018-11-27T10:12:24.817Z,94.65
2018-11-27T10:17:18.487Z,91.65
2018-11-27T10:22:12.482Z,94.90
2018-11-27T10:27:06.344Z,93.22
2018-11-27T10:32:00.057Z,93.58
2018-11-27T10:36:53.681Z,85.85
2018-11-27T10:41:47.405Z,87.10
2018-11-27T10:46:41.680Z,95.75
2018-11-27T10:51:35.869Z,89.90
2018-11-27T10:56:29.639Z,81.00
2018-11-27T11:01:28.656Z,87.53
2018-11-27T11:06:22.348Z,61.90
2018-11-27T11:11:16.124Z,70.85
2018-11-27T11:16:09.610Z,111.20
2018-11-27T11:21:03.267Z,131.40
2018-11-27T11:25:57.043Z,122.13
2018-11-27T11:30:51.054Z,132.95
2018-11-27T11:35:44.553Z,126.55
2018-11-27T11:40:38.083Z,125.45
2018-11-27T11:45:31.818Z,111.62
2018-11-27T11:50:27.074Z,114.35
2018-11-27T11:55:20.777Z,97.47
2018-11-27T12:00:18.765Z,91.82
2018-11-27T12:08:46.616Z,99.22
2018-11-27T12:13:40.459Z,121.60
2018-11-27T12:18:34.484Z,120.17
2018-11-27T12:23:28.478Z,111.83
2018-11-27T12:28:25.450Z,105.25
2018-11-27T12:33:19.017Z,104.55
2018-11-27T12:38:12.755Z,103.32
2018-11-27T12:43:08.742Z,111.52
2018-11-27T12:48:03.694Z,128.95
2018-11-27T12:52:58.829Z,103.40
2018-11-27T12:57:52.783Z,104.43
2018-11-27T13:02:46.585Z,83.35
2018-11-27T13:07:40.223Z,103.22
2018-11-27T13:12:33.947Z,83.03
2018-11-27T13:17:27.666Z,143.13
2018-11-27T13:22:21.370Z,144.30
2018-11-27T13:27:15.133Z,159.20
2018-11-27T13:32:09.148Z,138.72
2018-11-27T13:37:02.983Z,122.17
2018-11-27T13:41:56.755Z,154.47
2018-11-27T13:46:50.592Z,158.10
2018-11-27T13:51:44.171Z,94.28
2018-11-27T13:56:38.362Z,101.60
2018-11-27T14:01:37.537Z,110.78
2018-11-27T14:06:26.176Z,120.67
2018-11-27T14:11:20.265Z,93.37
2018-11-27T14:16:13.985Z,101.82
2018-11-27T14:21:07.547Z,95.05
2018-11-27T14:26:01.097Z,76.17
2018-11-27T14:30:55.313Z,109.35
2018-11-27T14:35:48.875Z,135.30
2018-11-27T14:40:42.600Z,103.47
2018-11-27T14:45:36.308Z,99.10
2018-11-27T14:50:29.886Z,98.20
2018-11-27T14:55:31.377Z,125.18
2018-11-27T15:00:25.768Z,158.75
2018-11-27T15:05:31.536Z,139.15
2018-11-27T15:10:25.425Z,210.23
2018-11-27T15:15:19.346Z,151.22
2018-11-27T15:20:15.404Z,148.90
2018-11-27T15:25:09.423Z,168.90
2018-11-27T15:30:03.838Z,70.00
2018-11-27T15:34:57.937Z,77.32
2018-11-27T15:39:51.598Z,73.22
2018-11-27T15:44:45.361Z,48.60
2018-11-27T15:49:39.385Z,53.00
2018-11-27T15:54:33.577Z,47.08
2018-11-27T15:59:27.163Z,51.90
2018-11-27T16:04:21.985Z,78.67
2018-11-27T16:09:15.569Z,72.32
2018-11-27T16:14:09.476Z,50.10
2018-11-27T16:19:03.106Z,58.05
2018-11-27T16:23:56.868Z,52.85
2018-11-27T16:28:50.525Z,43.50
2018-11-27T16:33:44.797Z,47.33
2018-11-27T16:38:40.212Z,52.43
2018-11-27T16:43:32.304Z,37.58
2018-11-27T16:48:25.826Z,37.30
2018-11-27T16:53:20.505Z,37.42
2018-11-27T16:58:14.314Z,44.90
2018-11-27T17:03:10.640Z,50.08
2018-11-27T17:08:04.305Z,53.02
2018-11-27T17:12:59.639Z,52.65
2018-11-27T17:17:53.701Z,49.53
2018-11-27T17:22:47.530Z,38.58
2018-11-27T17:27:41.936Z,51.85
2018-11-27T17:32:35.157Z,172.75
2018-11-27T17:37:29.381Z,70.30
2018-11-27T17:42:23.437Z,41.55
2018-11-27T17:47:16.952Z,37.42
2018-11-27T17:52:11.037Z,49.27
2018-11-27T17:57:05.015Z,141.18
2018-11-27T18:01:58.585Z,61.53
2018-11-27T18:06:52.290Z,77.10
2018-11-27T18:11:46.179Z,86.28
2018-11-27T18:16:40.311Z,51.77
2018-11-27T18:21:33.821Z,44.83
2018-11-27T18:26:27.440Z,30.97
2018-11-27T18:31:21.120Z,27.75
2018-11-27T18:36:15.328Z,36.70
2018-11-27T18:41:09.298Z,38.25
2018-11-27T18:46:03.603Z,33.53
2018-11-27T18:50:57.576Z,39.48
2018-11-27T18:55:51.819Z,61.37
2018-11-27T19:00:45.490Z,32.98
2018-11-27T19:05:40.524Z,26.12
2018-11-27T19:10:34.968Z,26.68
2018-11-27T19:15:35.658Z,26.27
2018-11-27T19:20:29.158Z,39.60
2018-11-27T19:25:24.943Z,19.73
2018-11-27T19:30:20.389Z,20.97
2018-11-27T19:35:15.767Z,23.00
2018-11-27T19:40:11.850Z,30.77
2018-11-27T19:45:08.566Z,29.18
2018-11-27T19:50:02.346Z,25.32
2018-11-27T19:54:56.192Z,12.90
2018-11-27T19:59:50.113Z,18.27
2018-11-27T20:04:43.779Z,31.23
2018-11-27T20:09:37.427Z,12.63
2018-11-27T20:14:30.996Z,14.18
2018-11-27T20:19:24.513Z,16.67
2018-11-27T20:24:18.170Z,17.57
2018-11-27T20:29:11.555Z,19.50
2018-11-27T20:34:05.077Z,27.20
2018-11-27T20:38:58.684Z,19.27
2018-11-27T20:43:52.250Z,15.18
2018-11-27T20:48:46.005Z,23.83
2018-11-27T20:53:39.482Z,16.60
2018-11-27T20:58:33.438Z,21.95
2018-11-27T21:03:26.969Z,13.28
2018-11-27T21:08:20.691Z,9.65
2018-11-27T21:13:14.121Z,6.72
2018-11-27T21:18:08.390Z,18.55
2018-11-27T21:23:01.862Z,22.20
2018-11-27T21:27:59.895Z,19.23
2018-11-27T21:32:54.366Z,10.70
2018-11-27T21:37:47.984Z,9.28
2018-11-27T21:42:41.329Z,4.10
2018-11-27T21:47:34.699Z,6.42
2018-11-27T21:52:28.121Z,13.05
2018-11-27T21:57:21.617Z,14.30
2018-11-27T22:02:15.086Z,10.58
2018-11-27T22:07:08.698Z,18.23
2018-11-27T22:12:02.105Z,8.18
2018-11-27T22:16:55.535Z,7.33
2018-11-27T22:21:48.970Z,17.37
2018-11-27T22:26:42.429Z,10.72
2018-11-27T22:31:35.865Z,9.70
2018-11-27T22:36:29.293Z,5.70
2018-11-27T22:41:22.679Z,11.70
2018-11-27T22:46:16.696Z,3.92
2018-11-27T22:51:10.265Z,6.90
2018-11-27T22:56:03.628Z,17.37
2018-11-27T23:00:56.992Z,6.28
2018-11-27T23:05:50.455Z,6.03
2018-11-27T23:10:45.075Z,3.52
2018-11-27T23:15:38.639Z,4.87
2018-11-27T23:20:32.045Z,4.42
2018-11-27T23:25:25.518Z,5.40
2018-11-27T23:30:21.805Z,6.08
2018-11-27T23:35:15.165Z,4.22
2018-11-27T23:40:12.683Z,4.45
2018-11-27T23:45:09.438Z,3.37
2018-11-27T23:50:02.890Z,3.83
2018-11-27T23:54:56.231Z,3.45
2018-11-27T23:59:49.717Z,2.70
